Time;durP1;ratioP1;P1;durP2;ratioP2;P2;SDS_P1;SDS_P2;PMS_P1;PMS_P2;Temp;Humidity;BMP_temperature;BMP_pressure;BME280_temperature;BME280_humidity;BME280_pressure;Samples;Min_cycle;Max_cycle;Signal;HPM_P1;HPM_P2
2023/07/08 00:01:16;;;;;;;1999.90;999.90;;;17.70;92.80;;;;;;5075239;28;20037;-76
2023/07/08 00:03:42;;;;;;;1999.90;999.90;;;17.70;93.00;;;;;;5075169;28;20044;-76
2023/07/08 00:06:16;;;;;;;1999.90;999.90;;;17.60;93.30;;;;;;5075181;28;20037;-77
2023/07/08 00:08:42;;;;;;;1999.90;999.90;;;17.60;93.00;;;;;;5075555;28;20068;-76
2023/07/08 00:11:10;;;;;;;1999.90;999.90;;;17.60;92.90;;;;;;5074301;28;20029;-76
2023/07/08 00:13:36;;;;;;;1999.90;999.90;;;17.60;92.40;;;;;;5075261;28;20448;-77
2023/07/08 00:16:01;;;;;;;1999.90;999.90;;;17.60;92.50;;;;;;5073700;28;20037;-77
2023/07/08 00:18:27;;;;;;;1999.90;999.90;;;17.60;93.20;;;;;;5075191;28;20086;-77
2023/07/08 00:20:52;;;;;;;1999.90;999.90;;;17.60;94.00;;;;;;5074454;28;24549;-76
2023/07/08 00:23:23;;;;;;;1999.90;999.90;;;17.50;93.30;;;;;;5075241;28;20483;-76
2023/07/08 00:25:49;;;;;;;1999.90;999.90;;;17.50;93.20;;;;;;5074319;28;20187;-76
2023/07/08 00:28:19;;;;;;;1999.90;999.90;;;17.50;95.50;;;;;;5074952;28;20240;-76
2023/07/08 00:30:45;;;;;;;1999.90;999.90;;;17.40;94.40;;;;;;5073831;28;20025;-76
2023/07/08 00:33:10;;;;;;;1999.90;999.90;;;17.30;93.70;;;;;;5074917;28;20037;-77
2023/07/08 00:35:44;;;;;;;1999.90;999.90;;;17.30;94.80;;;;;;5073330;28;20025;-76
2023/07/08 00:38:21;;;;;;;1999.90;999.90;;;17.20;94.30;;;;;;5075016;28;20512;-75
2023/07/08 00:40:52;;;;;;;1999.90;999.90;;;17.20;94.40;;;;;;5074932;28;20111;-77
2023/07/08 00:43:23;;;;;;;1999.90;999.90;;;17.10;94.20;;;;;;5074857;28;20033;-76
2023/07/08 00:45:53;;;;;;;1999.90;999.90;;;17.00;93.70;;;;;;5074594;28;20033;-76
2023/07/08 00:48:33;;;;;;;1999.90;999.90;;;17.10;93.80;;;;;;5073627;28;20033;-76
2023/07/08 00:50:58;;;;;;;1999.90;999.90;;;17.00;93.50;;;;;;5074625;28;20021;-76
2023/07/08 00:53:31;;;;;;;1999.90;999.90;;;17.00;93.50;;;;;;5074778;28;20037;-76
2023/07/08 00:56:13;;;;;;;1999.90;999.90;;;17.00;93.30;;;;;;5074689;28;20092;-76
2023/07/08 00:58:50;;;;;;;1999.90;999.90;;;17.10;93.00;;;;;;5074740;28;20091;-77
2023/07/08 01:01:16;;;;;;;1999.90;999.90;;;17.10;93.20;;;;;;5072472;28;20036;-76
2023/07/08 01:04:09;;;;;;;1999.90;999.90;;;17.10;93.10;;;;;;5073022;28;20033;-76
2023/07/08 01:06:39;;;;;;;1999.90;999.90;;;17.10;93.00;;;;;;5074474;28;20083;-77
2023/07/08 01:09:07;;;;;;;1999.90;999.90;;;17.10;93.00;;;;;;5074678;28;20041;-76
2023/07/08 01:11:36;;;;;;;1999.90;999.90;;;17.10;93.20;;;;;;5073722;28;20068;-77
2023/07/08 01:14:03;;;;;;;1999.90;999.90;;;17.00;93.20;;;;;;5074184;28;20909;-76
2023/07/08 01:16:33;;;;;;;1999.90;999.90;;;17.00;93.00;;;;;;5074341;28;20060;-76
2023/07/08 01:19:00;;;;;;;1999.90;999.90;;;17.10;94.70;;;;;;5072886;28;20033;-77
2023/07/08 01:21:39;;;;;;;1999.90;999.90;;;17.00;93.60;;;;;;5073977;28;20095;-77
2023/07/08 01:24:09;;;;;;;1999.90;999.90;;;17.00;94.80;;;;;;5073618;28;20053;-75
2023/07/08 01:26:37;;;;;;;1999.90;999.90;;;17.00;95.40;;;;;;5074478;28;20044;-77
2023/07/08 01:29:03;;;;;;;1999.90;999.90;;;17.00;94.40;;;;;;5073953;28;20033;-75
2023/07/08 01:31:29;;;;;;;1999.90;999.90;;;16.90;94.60;;;;;;5073770;28;20184;-76
2023/07/08 01:33:55;;;;;;;1999.90;999.90;;;16.90;95.90;;;;;;5072420;28;20553;-77
2023/07/08 01:36:21;;;;;;;1999.90;999.90;;;16.90;95.30;;;;;;5074210;28;20372;-77
2023/07/08 01:38:47;;;;;;;1999.90;999.90;;;16.80;94.90;;;;;;5073911;28;20033;-76
2023/07/08 01:41:15;;;;;;;1999.90;999.90;;;16.80;95.00;;;;;;5073769;28;20072;-76
2023/07/08 01:43:40;;;;;;;1999.90;999.90;;;16.70;94.60;;;;;;5073208;28;20029;-77
2023/07/08 01:46:15;;;;;;;1999.90;999.90;;;16.70;95.20;;;;;;5073848;28;20056;-77
2023/07/08 01:48:44;;;;;;;1999.90;999.90;;;16.70;94.90;;;;;;5074006;28;20037;-76
2023/07/08 01:51:09;;;;;;;1999.90;999.90;;;16.60;95.50;;;;;;5073327;28;20037;-76
2023/07/08 01:53:38;;;;;;;1999.90;999.90;;;16.60;95.80;;;;;;5073710;28;20033;-76
2023/07/08 01:56:04;;;;;;;1999.90;999.90;;;16.50;94.30;;;;;;5073558;28;20564;-76
2023/07/08 01:58:30;;;;;;;1999.90;999.90;;;16.50;94.30;;;;;;5073786;28;20119;-76
2023/07/08 02:00:56;;;;;;;1999.90;999.90;;;16.40;96.90;;;;;;5073552;28;20519;-76
2023/07/08 02:03:22;;;;;;;1999.90;999.90;;;16.40;95.60;;;;;;5072363;28;20025;-76
2023/07/08 02:05:48;;;;;;;1999.90;999.90;;;16.40;95.60;;;;;;5073348;28;20652;-77
2023/07/08 02:08:14;;;;;;;1999.90;999.90;;;16.40;96.40;;;;;;5073812;28;20073;-76
2023/07/08 02:10:42;;;;;;;1999.90;999.90;;;16.30;97.00;;;;;;5073675;28;20107;-76
2023/07/08 02:13:08;;;;;;;1999.90;999.90;;;16.30;96.40;;;;;;5076043;28;20040;-75
2023/07/08 02:15:33;;;;;;;1999.90;999.90;;;16.20;96.60;;;;;;5077070;28;20544;-76
2023/07/08 02:17:59;;;;;;;1999.90;999.90;;;16.10;96.70;;;;;;5075779;28;20486;-76
2023/07/08 02:20:25;;;;;;;1999.90;999.90;;;16.10;96.90;;;;;;5077016;28;20048;-76
2023/07/08 02:22:50;;;;;;;1999.90;999.90;;;16.00;97.40;;;;;;5076619;28;20039;-76
2023/07/08 02:25:16;;;;;;;1999.90;999.90;;;16.00;96.70;;;;;;5076958;28;20426;-77
2023/07/08 02:27:42;;;;;;;1999.90;999.90;;;15.90;96.40;;;;;;5076952;28;20127;-76
2023/07/08 02:30:09;;;;;;;1999.90;999.90;;;15.90;96.60;;;;;;5076993;28;20036;-76
2023/07/08 02:32:35;;;;;;;1999.90;999.90;;;15.90;96.80;;;;;;5075154;28;20052;-76
2023/07/08 02:35:08;;;;;;;1999.90;999.90;;;15.80;97.40;;;;;;5076744;28;20116;-76
2023/07/08 02:37:34;;;;;;;1999.90;999.90;;;15.80;97.50;;;;;;5077025;28;20037;-75
2023/07/08 02:40:00;;;;;;;1999.90;999.90;;;15.80;97.40;;;;;;5077085;28;20025;-76
2023/07/08 02:42:26;;;;;;;1999.90;999.90;;;15.70;97.70;;;;;;5076534;28;20068;-77
2023/07/08 02:44:51;;;;;;;1999.90;999.90;;;15.80;98.10;;;;;;5076768;28;20063;-76
2023/07/08 02:47:17;;;;;;;1999.90;999.90;;;15.70;98.00;;;;;;5076708;28;20045;-76
2023/07/08 02:49:43;;;;;;;1999.90;999.90;;;15.70;97.50;;;;;;5076356;28;20151;-76
2023/07/08 02:52:08;;;;;;;1999.90;999.90;;;15.80;97.90;;;;;;5076299;28;20037;-76
2023/07/08 02:54:34;;;;;;;1999.90;999.90;;;15.80;97.90;;;;;;5076064;28;20432;-76
2023/07/08 02:57:00;;;;;;;1999.90;999.90;;;15.80;97.70;;;;;;5076476;28;20079;-76
2023/07/08 02:59:28;;;;;;;1999.90;999.90;;;15.80;98.40;;;;;;5076422;28;20055;-76
2023/07/08 03:01:53;;;;;;;1999.90;999.90;;;15.80;98.20;;;;;;5076222;28;20044;-75
2023/07/08 03:04:21;;;;;;;1999.90;999.90;;;15.70;97.90;;;;;;5076004;28;20056;-76
2023/07/08 03:06:49;;;;;;;1999.90;999.90;;;15.60;98.30;;;;;;5076444;28;20494;-76
2023/07/08 03:09:15;;;;;;;1999.90;999.90;;;15.60;99.90;;;;;;5074926;28;20044;-76
2023/07/08 03:11:41;;;;;;;1999.90;999.90;;;15.70;99.90;;;;;;5076186;28;20036;-76
2023/07/08 03:14:07;;;;;;;1999.90;999.90;;;15.60;99.60;;;;;;5076246;28;20497;-76
2023/07/08 03:16:32;;;;;;;1999.90;999.90;;;15.50;98.60;;;;;;5076153;28;20390;-77
2023/07/08 03:18:58;;;;;;;1999.90;999.90;;;15.50;98.50;;;;;;5075769;28;20548;-77
2023/07/08 03:21:24;;;;;;;1999.90;999.90;;;15.40;99.00;;;;;;5075467;28;20426;-76
2023/07/08 03:23:50;;;;;;;1999.90;999.90;;;15.30;99.10;;;;;;5074717;28;20513;-76
2023/07/08 03:26:20;;;;;;;1999.90;999.90;;;15.30;99.90;;;;;;5075738;28;20184;-76
2023/07/08 03:28:46;;;;;;;1999.90;999.90;;;15.30;99.90;;;;;;5075835;28;20102;-75
2023/07/08 03:31:12;;;;;;;1999.90;999.90;;;15.30;99.90;;;;;;5075719;28;20048;-76
2023/07/08 03:33:38;;;;;;;1999.90;999.90;;;15.20;99.50;;;;;;5075727;28;20029;-75
2023/07/08 03:36:22;;;;;;;1999.90;999.90;;;15.20;99.40;;;;;;5075624;28;20498;-76
2023/07/08 03:38:52;;;;;;;1999.90;999.90;;;15.30;99.90;;;;;;5075981;28;20025;-76
2023/07/08 03:41:18;;;;;;;1999.90;999.90;;;15.20;99.90;;;;;;5075424;28;20491;-76
2023/07/08 03:43:43;;;;;;;1999.90;999.90;;;15.20;99.90;;;;;;5075685;28;20025;-76
2023/07/08 03:46:14;;;;;;;1999.90;999.90;;;15.10;99.90;;;;;;5075662;28;20052;-76
2023/07/08 03:48:39;;;;;;;1999.90;999.90;;;15.10;99.90;;;;;;5075727;28;20123;-76
2023/07/08 03:51:17;;;;;;;1999.90;999.90;;;15.10;99.90;;;;;;5075402;28;20108;-75
2023/07/08 03:53:42;;;;;;;1999.90;999.90;;;15.20;99.90;;;;;;5075890;28;20068;-76
2023/07/08 03:56:13;;;;;;;1999.90;999.90;;;15.30;99.90;;;;;;5075502;28;20087;-76
2023/07/08 03:58:38;;;;;;;1999.90;999.90;;;15.30;99.90;;;;;;5075591;28;20546;-76
2023/07/08 04:01:04;;;;;;;1999.90;999.90;;;15.40;99.90;;;;;;5075189;28;20123;-76
2023/07/08 04:03:30;;;;;;;1999.90;999.90;;;15.40;99.90;;;;;;5075396;28;20487;-76
2023/07/08 04:05:55;;;;;;;1999.90;999.90;;;15.40;99.30;;;;;;5074691;28;20482;-76
2023/07/08 04:08:21;;;;;;;1999.90;999.90;;;15.50;99.20;;;;;;5075476;28;20107;-76
2023/07/08 04:10:46;;;;;;;1999.90;999.90;;;15.50;98.80;;;;;;5075457;28;20033;-76
2023/07/08 04:13:12;;;;;;;1999.90;999.90;;;15.50;98.60;;;;;;5075003;28;20083;-76
2023/07/08 04:15:38;;;;;;;1999.90;999.90;;;15.60;98.70;;;;;;5073575;28;20033;-76
2023/07/08 04:18:03;;;;;;;1999.90;999.90;;;15.70;99.30;;;;;;5075324;28;20406;-75
2023/07/08 04:20:29;;;;;;;1999.90;999.90;;;15.70;97.90;;;;;;5073754;28;20036;-76
2023/07/08 04:22:55;;;;;;;1999.90;999.90;;;15.80;97.60;;;;;;5074915;28;20068;-76
2023/07/08 04:25:21;;;;;;;1999.90;999.90;;;15.80;97.30;;;;;;5074851;28;20119;-75
2023/07/08 04:27:47;;;;;;;1999.90;999.90;;;15.80;97.80;;;;;;5075172;28;20071;-75
2023/07/08 04:30:24;;;;;;;1999.90;999.90;;;16.00;97.60;;;;;;5075353;28;20132;-76
2023/07/08 04:32:51;;;;;;;1999.90;999.90;;;16.20;98.00;;;;;;5074995;28;20036;-76
2023/07/08 04:35:17;;;;;;;1999.90;999.90;;;16.20;98.70;;;;;;5074389;28;20076;-75
2023/07/08 04:37:43;;;;;;;1999.90;999.90;;;16.30;98.80;;;;;;5074891;28;20339;-75
2023/07/08 04:40:20;;;;;;;1999.90;999.90;;;16.40;97.30;;;;;;5075069;28;20029;-75
2023/07/08 04:42:47;;;;;;;1999.90;999.90;;;16.50;97.10;;;;;;5073232;28;20053;-76
2023/07/08 04:45:14;;;;;;;1999.90;999.90;;;16.70;97.90;;;;;;5073533;28;20098;-76
2023/07/08 04:47:40;;;;;;;1999.90;999.90;;;16.90;96.90;;;;;;5074902;28;20048;-76
2023/07/08 04:50:06;;;;;;;1999.90;999.90;;;17.10;97.10;;;;;;5074460;28;20036;-76
2023/07/08 04:52:31;;;;;;;1999.90;999.90;;;17.30;95.80;;;;;;5072964;28;20040;-75
2023/07/08 04:54:57;;;;;;;1999.90;999.90;;;17.50;96.60;;;;;;5074232;28;20040;-76
2023/07/08 04:57:22;;;;;;;1999.90;999.90;;;17.70;95.40;;;;;;5074338;28;20437;-75
2023/07/08 04:59:48;;;;;;;1999.90;999.90;;;17.80;94.70;;;;;;5074725;28;20483;-75
2023/07/08 05:02:14;;;;;;;1999.90;999.90;;;18.00;95.10;;;;;;5072668;28;20037;-76
2023/07/08 05:04:39;;;;;;;1999.90;999.90;;;18.10;94.40;;;;;;5074259;28;20044;-76
2023/07/08 05:07:05;;;;;;;1999.90;999.90;;;18.20;94.40;;;;;;5074151;28;20045;-76
2023/07/08 05:09:31;;;;;;;1999.90;999.90;;;18.40;93.70;;;;;;5074278;28;20025;-76
2023/07/08 05:11:57;;;;;;;1999.90;999.90;;;18.50;93.90;;;;;;5074243;28;20591;-75
2023/07/08 05:14:22;;;;;;;1999.90;999.90;;;18.70;93.50;;;;;;5074362;28;20063;-76
2023/07/08 05:16:48;;;;;;;1999.90;999.90;;;18.80;93.50;;;;;;5074474;28;20063;-76
2023/07/08 05:19:13;;;;;;;1999.90;999.90;;;19.00;92.80;;;;;;5072946;28;20033;-75
2023/07/08 05:21:39;;;;;;;1999.90;999.90;;;19.20;92.40;;;;;;5074101;28;20036;-76
2023/07/08 05:24:06;;;;;;;1999.90;999.90;;;19.40;92.20;;;;;;5072087;28;20107;-76
2023/07/08 05:26:32;;;;;;;1999.90;999.90;;;19.60;90.60;;;;;;5074359;28;20512;-76
2023/07/08 05:28:58;;;;;;;1999.90;999.90;;;19.70;89.20;;;;;;5074361;28;20033;-75
2023/07/08 05:31:24;;;;;;;1999.90;999.90;;;19.90;88.60;;;;;;5074028;28;20032;-76
2023/07/08 05:33:49;;;;;;;1999.90;999.90;;;20.10;86.30;;;;;;5073859;28;20033;-76
2023/07/08 05:36:15;;;;;;;1999.90;999.90;;;20.10;85.50;;;;;;5074051;28;20036;-76
2023/07/08 05:38:40;;;;;;;1999.90;999.90;;;20.20;87.80;;;;;;5074112;28;20375;-76
2023/07/08 05:41:06;;;;;;;1999.90;999.90;;;20.20;86.60;;;;;;5073352;28;20041;-75
2023/07/08 05:43:31;;;;;;;1999.90;999.90;;;20.20;85.30;;;;;;5072712;28;20515;-76
2023/07/08 05:45:59;;;;;;;1999.90;999.90;;;20.30;87.10;;;;;;5074109;28;20029;-77
2023/07/08 05:48:25;;;;;;;1999.90;999.90;;;20.30;87.10;;;;;;5076993;28;20473;-76
2023/07/08 05:50:50;;;;;;;1999.90;999.90;;;20.30;87.50;;;;;;5077673;28;20025;-77
2023/07/08 05:53:19;;;;;;;1999.90;999.90;;;20.40;86.90;;;;;;5076869;28;20052;-77
2023/07/08 05:55:45;;;;;;;1999.90;999.90;;;20.50;85.80;;;;;;5077437;28;20029;-76
2023/07/08 05:58:10;;;;;;;1999.90;999.90;;;20.70;85.60;;;;;;5078193;28;20440;-77
2023/07/08 06:00:36;;;;;;;1999.90;999.90;;;20.90;85.00;;;;;;5077861;28;20214;-77
2023/07/08 06:03:02;;;;;;;1999.90;999.90;;;21.10;84.70;;;;;;5077476;28;20035;-77
2023/07/08 06:05:28;;;;;;;1999.90;999.90;;;21.40;83.20;;;;;;5077356;28;20387;-77
2023/07/08 06:07:53;;;;;;;1999.90;999.90;;;21.50;83.50;;;;;;5076731;28;20041;-76
2023/07/08 06:10:19;;;;;;;1999.90;999.90;;;21.70;83.60;;;;;;5071205;28;20064;-76
2023/07/08 06:12:45;;;;;;;1999.90;999.90;;;21.90;82.80;;;;;;5066581;28;20092;-75
2023/07/08 06:15:12;;;;;;;1999.90;999.90;;;22.20;80.80;;;;;;5067189;28;20537;-75
2023/07/08 06:17:37;;;;;;;1999.90;999.90;;;22.40;81.00;;;;;;5063123;28;20095;-74
2023/07/08 06:20:03;;;;;;;1999.90;999.90;;;22.50;78.60;;;;;;5057034;28;20118;-75
2023/07/08 06:22:28;;;;;;;1999.90;999.90;;;22.70;81.30;;;;;;5056855;28;20517;-72
2023/07/08 06:24:54;;;;;;;1999.90;999.90;;;23.00;79.80;;;;;;5056539;28;20041;-75
2023/07/08 06:27:19;;;;;;;1999.90;999.90;;;23.20;81.20;;;;;;5055083;28;20041;-73
2023/07/08 06:29:45;;;;;;;1999.90;999.90;;;23.30;81.80;;;;;;5056919;28;20111;-74
2023/07/08 06:32:11;;;;;;;1999.90;999.90;;;23.40;82.80;;;;;;5056319;28;20044;-75
2023/07/08 06:34:36;;;;;;;1999.90;999.90;;;23.40;84.30;;;;;;5056593;28;20029;-73
2023/07/08 06:37:02;;;;;;;1999.90;999.90;;;23.50;81.70;;;;;;5056703;28;20211;-74
2023/07/08 06:39:27;;;;;;;1999.90;999.90;;;23.40;82.10;;;;;;5056754;28;20037;-75
2023/07/08 06:41:53;;;;;;;1999.90;999.90;;;23.30;82.50;;;;;;5054701;28;20060;-74
2023/07/08 06:44:18;;;;;;;1999.90;999.90;;;23.20;81.60;;;;;;5056081;28;20072;-76
2023/07/08 06:46:44;;;;;;;1999.90;999.90;;;23.20;81.90;;;;;;5076600;28;20052;-76
2023/07/08 06:49:11;;;;;;;1999.90;999.90;;;23.20;83.50;;;;;;5068179;28;20034;-74
2023/07/08 06:51:37;;;;;;;1999.90;999.90;;;23.10;82.30;;;;;;5069334;28;20041;-75
2023/07/08 06:54:10;;;;;;;1999.90;999.90;;;22.80;82.90;;;;;;5066792;28;20029;-74
2023/07/08 06:56:40;;;;;;;1999.90;999.90;;;22.70;84.10;;;;;;5067645;28;20483;-74
2023/07/08 06:59:07;;;;;;;1999.90;999.90;;;22.70;83.60;;;;;;5064276;28;20025;-73
2023/07/08 07:01:33;;;;;;;1999.90;999.90;;;22.70;83.90;;;;;;5066428;28;20046;-73
2023/07/08 07:03:59;;;;;;;1999.90;999.90;;;22.80;83.00;;;;;;5070841;28;20479;-72
2023/07/08 07:06:25;;;;;;;1999.90;999.90;;;22.70;83.40;;;;;;5064740;28;20032;-72
2023/07/08 07:08:54;;;;;;;1999.90;999.90;;;22.70;83.60;;;;;;5075492;28;20044;-72
2023/07/08 07:11:20;;;;;;;1999.90;999.90;;;22.70;84.10;;;;;;5069503;28;20037;-72
2023/07/08 07:13:46;;;;;;;1999.90;999.90;;;22.80;83.60;;;;;;5076137;28;20021;-72
2023/07/08 07:16:11;;;;;;;1999.90;999.90;;;22.90;82.70;;;;;;5076389;28;20021;-72
2023/07/08 07:18:37;;;;;;;1999.90;999.90;;;23.00;81.80;;;;;;5069149;28;20357;-72
2023/07/08 07:21:03;;;;;;;1999.90;999.90;;;23.10;81.50;;;;;;5055887;28;20138;-74
2023/07/08 07:23:28;;;;;;;1999.90;999.90;;;23.20;81.30;;;;;;5072120;28;20033;-74
2023/07/08 07:25:54;;;;;;;1999.90;999.90;;;23.40;81.20;;;;;;5055713;28;20088;-74
2023/07/08 07:28:19;;;;;;;1999.90;999.90;;;23.50;79.00;;;;;;5055924;28;20475;-74
2023/07/08 07:30:45;;;;;;;1999.90;999.90;;;23.60;76.30;;;;;;5063231;28;20111;-73
2023/07/08 07:33:12;;;;;;;1999.90;999.90;;;23.70;77.40;;;;;;5073707;28;20091;-73
2023/07/08 07:35:45;;;;;;;1999.90;999.90;;;24.00;76.20;;;;;;5071125;28;20034;-73
2023/07/08 07:38:11;;;;;;;1999.90;999.90;;;24.30;76.60;;;;;;5064051;28;20084;-72
2023/07/08 07:40:36;;;;;;;1999.90;999.90;;;24.60;74.70;;;;;;5072252;28;20120;-71
2023/07/08 07:43:02;;;;;;;1999.90;999.90;;;24.70;73.80;;;;;;5073671;28;20037;-73
2023/07/08 07:45:27;;;;;;;1999.90;999.90;;;25.00;73.20;;;;;;5075811;28;20108;-76
2023/07/08 07:47:53;;;;;;;1999.90;999.90;;;25.10;73.50;;;;;;5075810;28;20190;-71
2023/07/08 07:50:18;;;;;;;1999.90;999.90;;;25.40;70.40;;;;;;5073410;28;20072;-71
2023/07/08 07:52:45;;;;;;;1999.90;999.90;;;25.70;71.00;;;;;;5055186;28;20081;-70
2023/07/08 07:55:10;;;;;;;1999.90;999.90;;;25.90;70.50;;;;;;5055223;28;20110;-73
2023/07/08 07:57:36;;;;;;;1999.90;999.90;;;26.20;68.50;;;;;;5062166;28;20487;-73
2023/07/08 08:00:02;;;;;;;1999.90;999.90;;;26.30;68.30;;;;;;5066074;28;20041;-73
2023/07/08 08:02:27;;;;;;;1999.90;999.90;;;26.50;69.60;;;;;;5054697;28;20034;-73
2023/07/08 08:04:53;;;;;;;1999.90;999.90;;;26.60;69.70;;;;;;5065815;28;20060;-73
2023/07/08 08:07:18;;;;;;;1999.90;999.90;;;27.00;70.20;;;;;;5069540;28;20041;-73
2023/07/08 08:09:44;;;;;;;1999.90;999.90;;;27.10;68.40;;;;;;5071683;28;20036;-75
2023/07/08 08:12:11;;;;;;;1999.90;999.90;;;27.30;69.60;;;;;;5074448;28;20140;-70
2023/07/08 08:14:37;;;;;;;1999.90;999.90;;;27.60;71.20;;;;;;5073923;28;20033;-71
2023/07/08 08:17:04;;;;;;;1999.90;999.90;;;27.90;68.70;;;;;;5075207;28;20079;-71
2023/07/08 08:19:29;;;;;;;1999.90;999.90;;;27.80;66.80;;;;;;5073685;28;20129;-71
2023/07/08 08:21:55;;;;;;;1999.90;999.90;;;27.70;67.20;;;;;;5074962;28;20120;-71
2023/07/08 08:24:20;;;;;;;1999.90;999.90;;;27.70;68.30;;;;;;5074575;28;20072;-72
2023/07/08 08:26:46;;;;;;;1999.90;999.90;;;27.50;66.80;;;;;;5075161;28;20438;-70
2023/07/08 08:29:11;;;;;;;1999.90;999.90;;;27.30;68.10;;;;;;5073434;28;20045;-76
2023/07/08 08:31:37;;;;;;;1999.90;999.90;;;27.00;68.80;;;;;;5066711;22;20035;-76
2023/07/08 08:34:02;;;;;;;1999.90;999.90;;;27.30;69.30;;;;;;5013832;28;20392;-74
2023/07/08 08:36:28;;;;;;;1999.90;999.90;;;27.50;67.50;;;;;;5013673;28;20027;-75
2023/07/08 08:38:53;;;;;;;1999.90;999.90;;;27.60;67.40;;;;;;5013777;28;20480;-74
2023/07/08 08:41:32;;;;;;;1999.90;999.90;;;27.70;68.30;;;;;;5014630;28;20503;-74
2023/07/08 08:43:59;;;;;;;1999.90;999.90;;;28.10;65.50;;;;;;5014565;28;20853;-74
2023/07/08 08:46:40;;;;;;;1999.90;999.90;;;28.60;65.70;;;;;;5014400;28;20046;-74
2023/07/08 08:49:20;;;;;;;1999.90;999.90;;;28.10;64.00;;;;;;4995314;28;20046;-75
2023/07/08 08:51:47;;;;;;;1999.90;999.90;;;27.60;67.90;;;;;;4994934;28;20121;-74
2023/07/08 08:54:13;;;;;;;1999.90;999.90;;;27.60;68.90;;;;;;4994895;28;20534;-73
2023/07/08 08:57:07;;;;;;;1999.90;999.90;;;28.20;66.50;;;;;;4997551;28;20039;-73
2023/07/08 08:59:45;;;;;;;1999.90;999.90;;;28.60;66.10;;;;;;4994959;28;20034;-73
2023/07/08 09:02:34;;;;;;;1999.90;999.90;;;28.10;65.40;;;;;;4994818;28;20038;-73
2023/07/08 09:05:09;;;;;;;1999.90;999.90;;;28.00;66.40;;;;;;4987749;28;20483;-73
2023/07/08 09:08:10;;;;;;;1999.90;999.90;;;28.70;65.50;;;;;;4994871;28;20515;-73
2023/07/08 09:10:43;;;;;;;1999.90;999.90;;;29.40;64.60;;;;;;4995184;28;20046;-73
2023/07/08 09:13:16;;;;;;;1999.90;999.90;;;29.40;65.50;;;;;;4992841;28;20043;-73
2023/07/08 09:15:42;;;;;;;1999.90;999.90;;;28.70;65.80;;;;;;4993317;28;20489;-73
2023/07/08 09:18:24;;;;;;;1999.90;999.90;;;28.70;67.10;;;;;;4995374;28;20047;-78
2023/07/08 09:20:51;;;;;;;1999.90;999.90;;;28.80;67.10;;;;;;4992034;28;20445;-73
2023/07/08 09:23:25;;;;;;;1999.90;999.90;;;29.10;67.30;;;;;;4993139;28;20043;-75
2023/07/08 09:26:15;;;;;;;1999.90;999.90;;;29.20;65.50;;;;;;4994974;28;20089;-75
2023/07/08 09:28:43;;;;;;;1999.90;999.90;;;29.40;64.90;;;;;;4994429;28;20049;-75
2023/07/08 09:31:24;;;;;;;1999.90;999.90;;;29.50;66.50;;;;;;4994065;28;20489;-75
2023/07/08 09:34:14;;;;;;;1999.90;999.90;;;29.60;65.60;;;;;;4994844;28;20039;-74
2023/07/08 09:36:43;;;;;;;1999.90;999.90;;;29.50;66.00;;;;;;4992647;28;20043;-74
2023/07/08 09:39:18;;;;;;;1999.90;999.90;;;29.90;64.40;;;;;;4994603;28;20035;-72
2023/07/08 09:41:46;;;;;;;1999.90;999.90;;;30.10;62.30;;;;;;4992801;28;20035;-73
2023/07/08 09:44:29;;;;;;;1999.90;999.90;;;30.90;63.00;;;;;;4993859;28;20515;-73
2023/07/08 09:46:58;;;;;;;1999.90;999.90;;;30.70;61.60;;;;;;4993103;28;20093;-76
2023/07/08 09:49:35;;;;;;;1999.90;999.90;;;31.00;63.00;;;;;;4993107;28;20031;-71
2023/07/08 09:52:02;;;;;;;1999.90;999.90;;;30.90;61.50;;;;;;4994103;28;20126;-72
2023/07/08 09:54:28;;;;;;;1999.90;999.90;;;30.70;63.20;;;;;;4994306;28;20093;-74
2023/07/08 09:57:27;;;;;;;1999.90;999.90;;;31.30;60.00;;;;;;4994537;28;20090;-72
2023/07/08 09:59:58;;;;;;;1999.90;999.90;;;31.90;59.00;;;;;;4992431;28;20487;-72
2023/07/08 10:02:32;;;;;;;1999.90;999.90;;;32.20;57.40;;;;;;4994050;28;20039;-72
2023/07/08 10:05:01;;;;;;;1999.90;999.90;;;32.50;57.80;;;;;;4994365;28;20041;-72
2023/07/08 10:07:34;;;;;;;1999.90;999.90;;;32.70;57.40;;;;;;4994331;28;20039;-72
2023/07/08 10:10:06;;;;;;;1999.90;999.90;;;32.40;58.50;;;;;;4994446;28;20420;-73
2023/07/08 10:12:33;;;;;;;1999.90;999.90;;;32.10;57.90;;;;;;4993922;28;20539;-73
2023/07/08 10:15:07;;;;;;;1999.90;999.90;;;31.80;58.50;;;;;;4994276;28;20035;-71
2023/07/08 10:17:33;;;;;;;1999.90;999.90;;;31.50;58.90;;;;;;4994351;28;20035;-72
2023/07/08 10:19:59;;;;;;;1999.90;999.90;;;31.00;60.30;;;;;;4992800;28;20477;-73
2023/07/08 10:22:40;;;;;;;1999.90;999.90;;;30.70;60.70;;;;;;4993703;28;20038;-73
2023/07/08 10:25:29;;;;;;;1999.90;999.90;;;30.30;62.00;;;;;;4994444;28;20027;-71
2023/07/08 10:28:25;;;;;;;1999.90;999.90;;;29.80;62.30;;;;;;4993706;28;20043;-72
2023/07/08 10:31:02;;;;;;;1999.90;999.90;;;30.10;63.20;;;;;;4993720;28;20098;-76
2023/07/08 10:33:45;;;;;;;1999.90;999.90;;;31.00;61.30;;;;;;4994850;28;20043;-73
2023/07/08 10:36:25;;;;;;;1999.90;999.90;;;31.40;61.40;;;;;;4997616;28;20027;-72
2023/07/08 10:39:11;;;;;;;1999.90;999.90;;;31.60;60.50;;;;;;4997565;28;20440;-73
2023/07/08 10:41:51;;;;;;;1999.90;999.90;;;31.40;59.30;;;;;;4997198;28;20039;-73
2023/07/08 10:44:23;;;;;;;1999.90;999.90;;;31.90;62.60;;;;;;4995284;28;20046;-73
2023/07/08 10:47:21;;;;;;;1999.90;999.90;;;32.40;59.00;;;;;;4996988;28;20046;-74
2023/07/08 10:50:07;;;;;;;1999.90;999.90;;;32.30;58.70;;;;;;4997137;28;20055;-73
2023/07/08 10:52:49;;;;;;;1999.90;999.90;;;32.60;57.90;;;;;;4994994;28;20125;-72
2023/07/08 10:55:33;;;;;;;1999.90;999.90;;;33.00;55.20;;;;;;4997167;28;20512;-73
2023/07/08 10:58:17;;;;;;;1999.90;999.90;;;32.70;55.80;;;;;;4996217;28;20121;-73
2023/07/08 11:01:09;;;;;;;1999.90;999.90;;;32.80;56.70;;;;;;4996397;28;20167;-73
2023/07/08 11:04:04;;;;;;;1999.90;999.90;;;33.40;56.50;;;;;;4996377;28;20572;-73
2023/07/08 11:06:47;;;;;;;1999.90;999.90;;;33.50;54.20;;;;;;4992895;28;20047;-72
2023/07/08 11:09:38;;;;;;;1999.90;999.90;;;33.10;54.60;;;;;;4995536;28;20085;-73
2023/07/08 11:12:26;;;;;;;1999.90;999.90;;;33.10;54.60;;;;;;4994715;28;20050;-73
2023/07/08 11:15:00;;;;;;;1999.90;999.90;;;33.30;54.70;;;;;;4995436;28;20171;-73
2023/07/08 11:17:36;;;;;;;1999.90;999.90;;;32.80;54.20;;;;;;4997049;28;20468;-73
2023/07/08 11:20:48;;;;;;;1999.90;999.90;;;32.70;55.60;;;;;;4996938;28;20490;-73
2023/07/08 11:23:26;;;;;;;1999.90;999.90;;;33.30;55.40;;;;;;4993727;28;20035;-73
2023/07/08 11:26:00;;;;;;;1999.90;999.90;;;33.30;54.20;;;;;;4996512;28;20039;-74
2023/07/08 11:28:26;;;;;;;1999.90;999.90;;;33.40;55.50;;;;;;4996718;28;20039;-73
2023/07/08 11:30:53;;;;;;;1999.90;999.90;;;33.20;55.30;;;;;;4996353;28;20042;-76
2023/07/08 11:33:23;;;;;;;1999.90;999.90;;;33.30;53.70;;;;;;4996223;28;20069;-73
2023/07/08 11:35:55;;;;;;;1999.90;999.90;;;33.30;54.70;;;;;;4996690;28;20041;-73
2023/07/08 11:38:21;;;;;;;1999.90;999.90;;;33.20;54.20;;;;;;4996631;28;20034;-74
2023/07/08 11:41:00;;;;;;;1999.90;999.90;;;33.60;53.70;;;;;;4996250;28;20354;-73
2023/07/08 11:43:40;;;;;;;1999.90;999.90;;;33.50;53.90;;;;;;4995609;28;20065;-73
2023/07/08 11:46:07;;;;;;;1999.90;999.90;;;33.60;54.70;;;;;;4995236;28;20027;-73
2023/07/08 11:48:42;;;;;;;1999.90;999.90;;;33.70;55.10;;;;;;4994811;28;20124;-73
2023/07/08 11:51:09;;;;;;;1999.90;999.90;;;34.00;53.00;;;;;;4994403;28;20030;-73
2023/07/08 11:53:46;;;;;;;1999.90;999.90;;;34.00;52.00;;;;;;4996133;28;20043;-73
2023/07/08 11:56:11;;;;;;;1999.90;999.90;;;33.80;53.20;;;;;;4996362;28;20081;-73
2023/07/08 11:58:49;;;;;;;1999.90;999.90;;;33.60;54.50;;;;;;4996117;28;20039;-73
2023/07/08 12:01:17;;;;;;;1999.90;999.90;;;34.10;53.50;;;;;;4995748;28;20073;-74
2023/07/08 12:03:53;;;;;;;1999.90;999.90;;;34.40;52.20;;;;;;4994673;28;20516;-74
2023/07/08 12:06:29;;;;;;;1999.90;999.90;;;34.80;51.30;;;;;;4994458;28;20038;-73
2023/07/08 12:08:59;;;;;;;1999.90;999.90;;;34.80;52.60;;;;;;4995757;28;20031;-73
2023/07/08 12:11:34;;;;;;;1999.90;999.90;;;35.20;52.90;;;;;;4995145;28;20045;-73